Terminal Aerodrome Forecast
Issued by NWS Goodland, KS

Home | Current Version | Previous Version | Text Only | Print | Product List | Glossary On
Versions: 1 2 3 4 5 6 7 8 9 10 11 12 13 14 15 16
000
FTUS43 KGLD 242332
TAFGLD
TAF
KGLD 242332Z 2500/2524 34011KT P6SM SCT250
     FM250200 VRB05KT P6SM SCT100
     FM250900 32011KT P6SM BKN100
     FM251300 34014G30KT P6SM OVC080
     FM251700 35019G29KT P6SM SCT035 BKN090=

USA.gov is the U.S. government's official web portal to all federal, state and local government web resources and services.